Time;durP1;ratioP1;P1;durP2;ratioP2;P2;SDS_P1;SDS_P2;PMS_P1;PMS_P2;Temp;Humidity;BMP_temperature;BMP_pressure;BME280_temperature;BME280_humidity;BME280_pressure;Samples;Min_cycle;Max_cycle;Signal;HPM_P1;HPM_P2
2023/09/21 00:03:41;;;;;;;7.20;5.27;;;;;;;;;;13112199;22;20412;-88
2023/09/21 00:08:44;;;;;;;7.55;4.47;;;;;;;;;;13113148;22;20379;-87
2023/09/21 00:13:49;;;;;;;8.27;4.93;;;;;;;;;;13112010;22;20389;-88
2023/09/21 00:18:53;;;;;;;6.50;4.57;;;;;;;;;;13112600;22;20782;-87
2023/09/21 00:23:55;;;;;;;8.02;4.82;;;;;;;;;;13113948;22;20355;-88
2023/09/21 00:29:02;;;;;;;7.38;5.18;;;;;;;;;;13113128;22;20375;-87
2023/09/21 00:34:05;;;;;;;8.07;4.35;;;;;;;;;;13113011;22;20356;-88
2023/09/21 00:39:11;;;;;;;6.05;4.47;;;;;;;;;;13113499;22;20359;-88
2023/09/21 00:44:15;;;;;;;6.75;4.68;;;;;;;;;;13112199;22;20729;-88
2023/09/21 00:49:18;;;;;;;8.80;4.90;;;;;;;;;;13113046;22;20375;-88
2023/09/21 00:54:20;;;;;;;8.07;4.63;;;;;;;;;;13113710;22;20351;-87
2023/09/21 00:59:24;;;;;;;7.38;4.90;;;;;;;;;;13137225;22;20425;-88
2023/09/21 01:04:27;;;;;;;7.22;4.82;;;;;;;;;;13114019;22;20428;-88
2023/09/21 01:09:29;;;;;;;6.65;5.10;;;;;;;;;;13114396;22;20464;-86
2023/09/21 01:14:33;;;;;;;6.30;4.40;;;;;;;;;;13133941;22;20371;-89
2023/09/21 01:19:35;;;;;;;7.03;5.07;;;;;;;;;;13112510;22;20393;-88
2023/09/21 01:24:40;;;;;;;7.75;4.80;;;;;;;;;;13112740;22;20367;-88
2023/09/21 01:29:42;;;;;;;5.93;4.37;;;;;;;;;;13134791;22;20440;-88
2023/09/21 01:34:46;;;;;;;7.25;4.50;;;;;;;;;;13112782;22;20381;-88
2023/09/21 01:39:50;;;;;;;6.13;4.10;;;;;;;;;;13113588;22;20355;-89
2023/09/21 01:44:52;;;;;;;9.25;4.63;;;;;;;;;;13112362;22;20363;-88
2023/09/21 01:49:55;;;;;;;4.90;3.80;;;;;;;;;;13111786;22;21042;-88
2023/09/21 01:54:59;;;;;;;6.85;4.15;;;;;;;;;;13111157;22;20853;-87
2023/09/21 02:00:11;;;;;;;6.63;4.03;;;;;;;;;;13111141;22;20355;-87
2023/09/21 02:05:15;;;;;;;5.73;4.50;;;;;;;;;;13112060;22;20384;-89
2023/09/21 02:10:18;;;;;;;7.60;3.88;;;;;;;;;;13110793;22;20371;-87
2023/09/21 02:15:21;;;;;;;5.80;4.05;;;;;;;;;;13110990;22;20363;-87
2023/09/21 02:20:24;;;;;;;6.30;3.97;;;;;;;;;;13110221;22;20413;-87
2023/09/21 02:25:30;;;;;;;6.13;3.95;;;;;;;;;;13111395;22;20421;-87
2023/09/21 02:30:33;;;;;;;5.45;3.45;;;;;;;;;;13113149;22;20460;-87
2023/09/21 02:35:41;;;;;;;5.72;3.78;;;;;;;;;;13115170;22;20908;-87
2023/09/21 02:40:45;;;;;;;5.38;4.03;;;;;;;;;;13115736;22;20363;-87
2023/09/21 02:45:50;;;;;;;5.32;3.92;;;;;;;;;;13141317;22;20410;-88
2023/09/21 02:50:52;;;;;;;6.05;3.88;;;;;;;;;;13116540;22;20695;-87
2023/09/21 02:55:57;;;;;;;5.90;3.60;;;;;;;;;;13138497;22;20351;-87
2023/09/21 03:00:59;;;;;;;6.18;3.65;;;;;;;;;;13129976;22;20363;-88
2023/09/21 03:06:03;;;;;;;4.38;3.55;;;;;;;;;;13114632;22;20378;-87
2023/09/21 03:11:09;;;;;;;6.22;3.60;;;;;;;;;;13115907;22;20742;-88
2023/09/21 03:16:13;;;;;;;5.20;3.60;;;;;;;;;;13113735;22;20367;-87
2023/09/21 03:21:16;;;;;;;5.82;3.20;;;;;;;;;;13136308;22;20351;-86
2023/09/21 03:26:20;;;;;;;5.30;3.47;;;;;;;;;;13114996;22;20363;-87
2023/09/21 03:31:22;;;;;;;5.22;3.35;;;;;;;;;;13112788;22;20376;-87
2023/09/21 03:36:25;;;;;;;6.15;3.20;;;;;;;;;;13113981;22;20363;-87
2023/09/21 03:41:28;;;;;;;5.20;3.60;;;;;;;;;;13113713;22;20363;-87
2023/09/21 03:46:31;;;;;;;5.23;3.40;;;;;;;;;;13114405;22;20359;-87
2023/09/21 03:51:33;;;;;;;6.20;3.72;;;;;;;;;;13113469;22;20413;-87
2023/09/21 03:56:39;;;;;;;5.55;3.60;;;;;;;;;;13086385;22;20351;-88
2023/09/21 04:01:42;;;;;;;8.13;3.70;;;;;;;;;;13112977;22;20360;-87
2023/09/21 04:06:44;;;;;;;7.78;4.70;;;;;;;;;;13113850;22;20355;-88
2023/09/21 04:11:48;;;;;;;4.90;3.20;;;;;;;;;;13113825;22;20753;-88
2023/09/21 04:16:51;;;;;;;4.38;3.10;;;;;;;;;;13112124;22;20363;-88
2023/09/21 04:21:54;;;;;;;4.93;3.15;;;;;;;;;;13113254;22;20356;-87
2023/09/21 04:26:58;;;;;;;4.07;3.00;;;;;;;;;;13113364;22;20676;-88
2023/09/21 04:32:01;;;;;;;5.45;3.22;;;;;;;;;;13121758;22;20379;-87
2023/09/21 04:37:03;;;;;;;6.27;3.10;;;;;;;;;;13124648;22;20666;-86
2023/09/21 04:42:08;;;;;;;6.65;3.35;;;;;;;;;;13112332;22;20375;-88
2023/09/21 04:47:11;;;;;;;8.60;3.13;;;;;;;;;;13110492;22;20942;-88
2023/09/21 04:52:13;;;;;;;5.87;4.00;;;;;;;;;;13110171;22;20413;-87
2023/09/21 04:57:18;;;;;;;6.13;3.25;;;;;;;;;;13133366;22;20907;-88
2023/09/21 05:02:21;;;;;;;6.20;3.63;;;;;;;;;;13110682;22;20360;-87
2023/09/21 05:07:23;;;;;;;5.38;3.58;;;;;;;;;;13108357;22;20359;-88
2023/09/21 05:12:27;;;;;;;5.35;3.50;;;;;;;;;;13107105;22;20737;-88
2023/09/21 05:17:31;;;;;;;6.38;3.50;;;;;;;;;;13107550;22;20859;-87
2023/09/21 05:22:34;;;;;;;6.23;4.03;;;;;;;;;;13109908;22;20468;-88
2023/09/21 05:27:38;;;;;;;5.20;3.60;;;;;;;;;;13107069;22;20900;-87
2023/09/21 05:32:40;;;;;;;5.57;3.40;;;;;;;;;;13108464;22;20402;-87
2023/09/21 05:37:44;;;;;;;5.25;3.20;;;;;;;;;;13108930;22;20437;-87
2023/09/21 05:42:49;;;;;;;4.35;2.92;;;;;;;;;;13110229;22;20789;-87
2023/09/21 05:47:51;;;;;;;7.35;3.75;;;;;;;;;;13128827;22;20649;-87
2023/09/21 05:52:56;;;;;;;5.68;3.30;;;;;;;;;;13110596;22;20375;-88
2023/09/21 05:58:00;;;;;;;7.65;3.78;;;;;;;;;;13106801;22;20355;-87
2023/09/21 06:03:02;;;;;;;7.80;3.25;;;;;;;;;;13107873;22;20394;-87
2023/09/21 06:08:05;;;;;;;5.00;3.08;;;;;;;;;;13109441;22;20363;-86
2023/09/21 06:13:09;;;;;;;4.35;2.80;;;;;;;;;;13068481;22;20464;-87
2023/09/21 06:18:12;;;;;;;4.88;3.08;;;;;;;;;;12875163;23;20686;-87
2023/09/21 06:23:17;;;;;;;14.10;3.70;;;;;;;;;;12854645;23;20424;-88
2023/09/21 06:28:22;;;;;;;4.60;3.45;;;;;;;;;;12853949;23;20382;-87
2023/09/21 06:33:27;;;;;;;5.32;3.58;;;;;;;;;;12851625;23;20362;-87
2023/09/21 06:38:29;;;;;;;6.28;3.88;;;;;;;;;;12854277;23;20726;-87
2023/09/21 06:43:35;;;;;;;4.80;3.40;;;;;;;;;;12856230;23;20370;-86
2023/09/21 06:48:38;;;;;;;4.90;3.28;;;;;;;;;;12878380;23;20757;-87
2023/09/21 06:53:43;;;;;;;5.18;3.25;;;;;;;;;;12854221;23;20358;-88
2023/09/21 06:58:47;;;;;;;6.38;4.00;;;;;;;;;;12855131;23;20400;-87
2023/09/21 07:03:49;;;;;;;6.13;3.42;;;;;;;;;;12854382;23;20406;-88
2023/09/21 07:08:52;;;;;;;5.87;3.43;;;;;;;;;;12864627;23;20385;-87
2023/09/21 07:13:58;;;;;;;7.07;3.30;;;;;;;;;;12866479;23;20366;-87
2023/09/21 07:19:00;;;;;;;5.25;3.25;;;;;;;;;;12857782;23;20374;-88
2023/09/21 07:24:05;;;;;;;6.88;3.67;;;;;;;;;;12858858;23;20370;-87
2023/09/21 07:29:10;;;;;;;5.90;3.67;;;;;;;;;;12859606;23;20702;-87
2023/09/21 07:34:13;;;;;;;8.38;4.15;;;;;;;;;;12858951;23;20401;-87
2023/09/21 07:39:16;;;;;;;6.43;3.80;;;;;;;;;;12858409;23;20448;-88
2023/09/21 07:44:22;;;;;;;4.97;3.60;;;;;;;;;;12858556;23;20378;-87
2023/09/21 07:49:25;;;;;;;6.53;3.78;;;;;;;;;;12876909;23;20911;-87
2023/09/21 07:54:29;;;;;;;26.85;6.28;;;;;;;;;;12856820;23;20679;-87
2023/09/21 07:59:33;;;;;;;16.35;5.80;;;;;;;;;;12857201;23;20347;-87
2023/09/21 08:04:36;;;;;;;11.15;4.28;;;;;;;;;;12858527;23;20444;-88
2023/09/21 08:09:39;;;;;;;7.20;3.70;;;;;;;;;;12858384;23;20459;-87
2023/09/21 08:14:42;;;;;;;8.40;3.90;;;;;;;;;;12857919;23;20366;-88
2023/09/21 08:19:46;;;;;;;5.38;3.88;;;;;;;;;;12858149;23;20888;-89
2023/09/21 08:24:49;;;;;;;6.60;3.95;;;;;;;;;;12879232;23;20362;-88
2023/09/21 08:29:52;;;;;;;5.90;3.60;;;;;;;;;;12858747;23;20386;-88
2023/09/21 08:34:55;;;;;;;6.10;4.07;;;;;;;;;;12871743;23;20374;-88
2023/09/21 08:39:57;;;;;;;6.63;3.70;;;;;;;;;;12880041;23;20374;-87
2023/09/21 08:45:02;;;;;;;6.30;4.00;;;;;;;;;;12858465;23;20452;-88
2023/09/21 08:50:07;;;;;;;6.43;3.90;;;;;;;;;;12857592;23;20440;-89
2023/09/21 08:55:10;;;;;;;6.80;3.60;;;;;;;;;;12878672;23;21147;-88
2023/09/21 09:00:15;;;;;;;6.05;3.30;;;;;;;;;;12884590;23;20428;-88
2023/09/21 09:05:18;;;;;;;5.03;3.40;;;;;;;;;;12860643;23;20362;-88
2023/09/21 09:10:20;;;;;;;5.40;3.15;;;;;;;;;;12877340;23;20382;-88
2023/09/21 09:15:34;;;;;;;3.97;3.05;;;;;;;;;;12857816;23;20440;-88
2023/09/21 09:20:38;;;;;;;4.73;3.17;;;;;;;;;;12855061;23;20360;-87
2023/09/21 09:25:43;;;;;;;3.97;3.03;;;;;;;;;;12857286;23;20367;-88
2023/09/21 09:30:48;;;;;;;5.03;2.85;;;;;;;;;;12855094;23;20382;-87
2023/09/21 09:35:51;;;;;;;5.18;3.08;;;;;;;;;;12855511;23;20366;-87
2023/09/21 09:40:54;;;;;;;5.55;2.97;;;;;;;;;;12855546;23;20358;-87
2023/09/21 09:46:01;;;;;;;4.60;3.25;;;;;;;;;;12855035;23;20362;-87
2023/09/21 09:51:11;;;;;;;4.85;3.08;;;;;;;;;;12854904;23;20382;-87
2023/09/21 09:56:14;;;;;;;4.88;3.03;;;;;;;;;;12855921;23;20431;-87
2023/09/21 10:01:19;;;;;;;4.57;2.53;;;;;;;;;;12855481;23;20401;-87
2023/09/21 10:06:23;;;;;;;6.10;2.80;;;;;;;;;;12853325;23;20366;-88
2023/09/21 10:11:27;;;;;;;3.30;2.40;;;;;;;;;;12856160;23;20381;-87
2023/09/21 10:16:31;;;;;;;3.65;2.00;;;;;;;;;;12854383;23;20374;-87
2023/09/21 10:21:38;;;;;;;2.65;2.17;;;;;;;;;;12853950;23;20427;-87
2023/09/21 10:26:45;;;;;;;3.95;2.20;;;;;;;;;;12853504;23;20370;-86
2023/09/21 10:31:55;;;;;;;5.97;2.50;;;;;;;;;;12854134;23;20471;-87
2023/09/21 10:37:00;;;;;;;6.30;2.03;;;;;;;;;;12854055;23;20408;-87
2023/09/21 10:42:33;;;;;;;3.65;2.08;;;;;;;;;;12852945;23;20688;-87
2023/09/21 10:47:41;;;;;;;4.43;1.92;;;;;;;;;;12880737;23;20362;-86
2023/09/21 10:52:45;;;;;;;2.90;1.70;;;;;;;;;;12855929;23;20920;-87
2023/09/21 10:57:49;;;;;;;3.40;1.75;;;;;;;;;;12858580;23;20436;-87
2023/09/21 11:02:55;;;;;;;3.03;1.77;;;;;;;;;;12855780;23;20374;-87
2023/09/21 11:07:59;;;;;;;3.35;1.73;;;;;;;;;;12856262;23;20912;-86
2023/09/21 11:13:01;;;;;;;4.00;1.60;;;;;;;;;;12830792;23;20428;-89
2023/09/21 11:18:05;;;;;;;3.13;1.38;;;;;;;;;;12842545;23;20409;-87
2023/09/21 11:23:08;;;;;;;3.85;1.40;;;;;;;;;;12845967;23;21143;-89
2023/09/21 11:28:11;;;;;;;6.20;1.60;;;;;;;;;;12847230;23;20382;-89
2023/09/21 11:33:14;;;;;;;2.17;1.20;;;;;;;;;;12837274;23;20416;-88
2023/09/21 11:38:17;;;;;;;3.30;1.63;;;;;;;;;;12873311;23;20456;-89
2023/09/21 11:43:20;;;;;;;3.90;1.90;;;;;;;;;;12845487;23;20377;-87
2023/09/21 11:48:29;;;;;;;4.82;1.83;;;;;;;;;;12844575;23;20378;-88
2023/09/21 11:53:32;;;;;;;4.40;2.00;;;;;;;;;;12845547;23;20441;-87
2023/09/21 11:58:35;;;;;;;5.13;1.65;;;;;;;;;;12839682;23;20382;-80
2023/09/21 12:03:41;;;;;;;3.97;1.57;;;;;;;;;;12835860;23;20425;-77
2023/09/21 12:08:43;;;;;;;6.30;1.77;;;;;;;;;;12854799;23;20491;-88
2023/09/21 12:13:45;;;;;;;4.78;1.30;;;;;;;;;;12872197;23;20381;-88
2023/09/21 12:18:49;;;;;;;4.95;1.60;;;;;;;;;;12856458;23;20456;-88
2023/09/21 12:23:52;;;;;;;5.07;1.63;;;;;;;;;;12852345;23;20443;-89
2023/09/21 12:28:54;;;;;;;4.50;1.63;;;;;;;;;;12889470;23;20409;-88
2023/09/21 12:33:58;;;;;;;4.57;1.60;;;;;;;;;;12856775;23;20467;-88
2023/09/21 12:39:01;;;;;;;3.72;1.50;;;;;;;;;;12877858;23;20374;-89
2023/09/21 12:44:03;;;;;;;4.53;1.63;;;;;;;;;;12852726;23;20374;-89
2023/09/21 12:49:07;;;;;;;5.30;1.80;;;;;;;;;;12852097;23;20737;-89
2023/09/21 12:54:10;;;;;;;4.28;1.52;;;;;;;;;;12854684;23;20452;-89
2023/09/21 12:59:14;;;;;;;3.20;1.83;;;;;;;;;;12854274;23;20448;-89
2023/09/21 13:04:17;;;;;;;3.95;1.80;;;;;;;;;;12874978;23;20393;-89
2023/09/21 13:09:20;;;;;;;8.52;2.20;;;;;;;;;;12874371;23;20436;-89
2023/09/21 13:14:22;;;;;;;3.28;1.75;;;;;;;;;;12875228;23;20381;-89
2023/09/21 13:19:26;;;;;;;4.30;1.50;;;;;;;;;;12852064;23;20429;-89
2023/09/21 13:24:29;;;;;;;4.82;1.80;;;;;;;;;;12871700;23;20404;-89
2023/09/21 13:29:32;;;;;;;8.20;2.10;;;;;;;;;;12852381;23;20437;-89
2023/09/21 13:34:37;;;;;;;5.83;1.83;;;;;;;;;;12854563;23;20390;-90
2023/09/21 13:39:40;;;;;;;4.63;1.87;;;;;;;;;;12849875;23;20942;-89
2023/09/21 13:44:42;;;;;;;5.78;1.70;;;;;;;;;;12851875;23;20370;-89
2023/09/21 13:49:46;;;;;;;5.80;2.00;;;;;;;;;;12875464;23;20916;-89
2023/09/21 13:54:49;;;;;;;5.63;1.90;;;;;;;;;;12856899;23;20385;-89
2023/09/21 13:59:51;;;;;;;5.33;1.70;;;;;;;;;;12869672;23;20441;-88
2023/09/21 14:04:55;;;;;;;5.85;2.50;;;;;;;;;;12854893;23;20370;-89
2023/09/21 14:09:58;;;;;;;4.72;2.30;;;;;;;;;;12855917;23;20853;-88
2023/09/21 14:15:00;;;;;;;5.38;2.67;;;;;;;;;;12859713;23;20456;-89
2023/09/21 14:20:05;;;;;;;8.88;2.90;;;;;;;;;;12892916;23;20453;-89
2023/09/21 14:25:09;;;;;;;7.25;1.70;;;;;;;;;;12855384;23;20374;-89
2023/09/21 14:30:15;;;;;;;3.40;2.20;;;;;;;;;;12852070;23;20420;-89
2023/09/21 14:35:19;;;;;;;5.70;2.65;;;;;;;;;;12856512;23;20432;-90
2023/09/21 14:40:21;;;;;;;5.90;2.03;;;;;;;;;;12856625;23;20425;-89
2023/09/21 14:45:24;;;;;;;5.63;2.00;;;;;;;;;;12863544;23;20448;-89
2023/09/21 14:50:30;;;;;;;5.07;1.80;;;;;;;;;;12856140;23;20362;-90
2023/09/21 14:55:32;;;;;;;4.57;2.03;;;;;;;;;;12855227;23;20362;-89
2023/09/21 15:00:36;;;;;;;12.55;5.28;;;;;;;;;;12849112;23;20394;-90
2023/09/21 15:05:40;;;;;;;11.45;4.53;;;;;;;;;;12867348;23;20374;-92
2023/09/21 15:10:43;;;;;;;5.15;2.08;;;;;;;;;;12850038;23;20370;-93
2023/09/21 15:15:45;;;;;;;4.43;2.00;;;;;;;;;;12850632;23;20378;-92
2023/09/21 15:20:49;;;;;;;6.87;2.40;;;;;;;;;;12849840;23;20413;-93
2023/09/21 15:25:51;;;;;;;4.78;2.00;;;;;;;;;;12847372;23;20381;-88
2023/09/21 15:30:54;;;;;;;6.45;2.53;;;;;;;;;;12845456;23;20714;-90
2023/09/21 15:35:59;;;;;;;6.80;2.63;;;;;;;;;;12847351;23;20405;-89
2023/09/21 15:41:03;;;;;;;6.57;2.72;;;;;;;;;;12843183;23;20857;-88
2023/09/21 15:46:05;;;;;;;9.07;2.47;;;;;;;;;;12836586;23;20889;-85
2023/09/21 15:51:09;;;;;;;6.18;3.08;;;;;;;;;;12828697;23;20385;-87
2023/09/21 15:56:12;;;;;;;7.10;2.42;;;;;;;;;;12858713;23;20841;-87
2023/09/21 16:01:14;;;;;;;6.20;2.53;;;;;;;;;;12851404;23;20409;-86
2023/09/21 16:06:18;;;;;;;7.28;2.67;;;;;;;;;;12856949;23;20822;-86
2023/09/21 16:11:21;;;;;;;7.43;2.80;;;;;;;;;;12836616;23;20386;-87
2023/09/21 16:16:24;;;;;;;6.87;2.17;;;;;;;;;;12805924;23;20486;-87
2023/09/21 16:21:28;;;;;;;4.30;2.53;;;;;;;;;;12829166;23;20705;-86
2023/09/21 16:26:31;;;;;;;5.80;2.80;;;;;;;;;;12829417;23;20452;-89
2023/09/21 16:31:33;;;;;;;7.15;2.65;;;;;;;;;;12825422;23;20440;-88
2023/09/21 16:36:37;;;;;;;4.82;2.50;;;;;;;;;;12835428;23;20382;-88
2023/09/21 16:41:40;;;;;;;5.20;2.55;;;;;;;;;;12854879;23;20374;-89
2023/09/21 16:46:42;;;;;;;7.73;2.47;;;;;;;;;;12856927;23;20366;-87
2023/09/21 16:51:46;;;;;;;4.72;2.55;;;;;;;;;;12823388;23;20378;-88
2023/09/21 16:56:49;;;;;;;6.23;2.50;;;;;;;;;;12823957;23;20466;-88
2023/09/21 17:01:52;;;;;;;6.07;3.03;;;;;;;;;;12834083;23;20382;-87
2023/09/21 17:06:56;;;;;;;7.30;3.00;;;;;;;;;;12836448;23;20378;-86
2023/09/21 17:11:59;;;;;;;5.37;2.80;;;;;;;;;;12830072;23;20386;-88
2023/09/21 17:17:02;;;;;;;13.07;4.20;;;;;;;;;;12847086;23;20452;-88
2023/09/21 17:22:06;;;;;;;9.20;3.15;;;;;;;;;;12808180;23;20464;-88
2023/09/21 17:27:09;;;;;;;7.18;3.90;;;;;;;;;;12837853;23;20443;-87
2023/09/21 17:32:12;;;;;;;8.27;3.70;;;;;;;;;;12828592;23;20394;-87
2023/09/21 17:37:16;;;;;;;7.00;3.85;;;;;;;;;;12839384;23;20599;-89
2023/09/21 17:42:19;;;;;;;7.22;3.67;;;;;;;;;;12828615;23;20386;-88
2023/09/21 17:47:21;;;;;;;8.77;2.93;;;;;;;;;;12829209;23;20382;-89
2023/09/21 17:52:25;;;;;;;6.43;2.92;;;;;;;;;;12842837;23;20385;-88
2023/09/21 17:57:28;;;;;;;6.68;2.65;;;;;;;;;;12845166;23;20438;-88
2023/09/21 18:02:32;;;;;;;8.25;2.95;;;;;;;;;;12844586;23;20433;-87
2023/09/21 18:07:37;;;;;;;6.90;3.17;;;;;;;;;;12867038;23;20362;-88
2023/09/21 18:12:40;;;;;;;8.38;4.72;;;;;;;;;;12847414;23;20393;-89
2023/09/21 18:17:43;;;;;;;10.50;6.00;;;;;;;;;;12846566;23;21128;-88
2023/09/21 18:22:48;;;;;;;12.07;5.40;;;;;;;;;;12844455;23;21057;-89
2023/09/21 18:27:50;;;;;;;9.05;4.65;;;;;;;;;;12845172;23;20444;-88
2023/09/21 18:32:53;;;;;;;8.75;4.93;;;;;;;;;;12855931;23;20932;-86
2023/09/21 18:37:57;;;;;;;8.75;5.20;;;;;;;;;;12843536;23;20845;-86
2023/09/21 18:43:00;;;;;;;9.50;4.50;;;;;;;;;;12840160;23;20722;-86
2023/09/21 18:48:03;;;;;;;9.30;3.92;;;;;;;;;;12840371;23;20369;-86
2023/09/21 18:53:07;;;;;;;7.43;3.73;;;;;;;;;;12838036;23;20791;-86
2023/09/21 18:58:10;;;;;;;8.65;4.22;;;;;;;;;;12840749;23;20381;-86
2023/09/21 19:03:13;;;;;;;6.47;3.55;;;;;;;;;;12829588;23;20369;-85
2023/09/21 19:08:17;;;;;;;6.30;3.50;;;;;;;;;;12832024;23;20432;-86
2023/09/21 19:13:20;;;;;;;6.07;3.35;;;;;;;;;;12846121;23;20386;-86
2023/09/21 19:18:22;;;;;;;8.00;3.35;;;;;;;;;;12848847;23;20378;-87
2023/09/21 19:23:26;;;;;;;7.93;3.40;;;;;;;;;;12844340;23;20378;-86
2023/09/21 19:28:29;;;;;;;5.80;3.40;;;;;;;;;;12855844;23;20469;-86
2023/09/21 19:33:31;;;;;;;7.47;3.85;;;;;;;;;;12849503;23;20393;-87
2023/09/21 19:38:36;;;;;;;5.40;3.30;;;;;;;;;;12844908;23;20382;-87
2023/09/21 19:43:38;;;;;;;6.00;3.28;;;;;;;;;;12845232;23;20424;-87
2023/09/21 19:48:41;;;;;;;6.15;3.20;;;;;;;;;;12847292;23;20382;-87
2023/09/21 19:53:46;;;;;;;7.43;3.55;;;;;;;;;;12849292;23;20452;-86
2023/09/21 19:58:49;;;;;;;7.00;3.55;;;;;;;;;;12849757;23;20390;-85
2023/09/21 20:03:51;;;;;;;5.30;3.50;;;;;;;;;;12847926;23;20365;-87
2023/09/21 20:08:57;;;;;;;8.85;3.47;;;;;;;;;;12850856;23;20370;-87
2023/09/21 20:13:59;;;;;;;7.90;3.05;;;;;;;;;;12851145;23;20421;-86
2023/09/21 20:19:03;;;;;;;6.80;3.42;;;;;;;;;;12850231;23;20382;-86
2023/09/21 20:24:08;;;;;;;6.88;3.38;;;;;;;;;;12849305;23;20444;-86
2023/09/21 20:29:10;;;;;;;9.18;3.15;;;;;;;;;;12823091;23;20382;-86
2023/09/21 20:34:13;;;;;;;5.88;3.30;;;;;;;;;;12848151;23;20702;-85
2023/09/21 20:39:17;;;;;;;6.27;3.30;;;;;;;;;;12850540;23;20443;-86
2023/09/21 20:44:19;;;;;;;9.83;3.97;;;;;;;;;;12861755;23;20370;-85
2023/09/21 20:49:22;;;;;;;7.28;3.33;;;;;;;;;;12862507;23;20745;-86
2023/09/21 20:54:26;;;;;;;8.25;3.70;;;;;;;;;;12849434;23;20393;-86
2023/09/21 20:59:28;;;;;;;6.00;3.30;;;;;;;;;;12849211;23;20386;-86
2023/09/21 21:04:31;;;;;;;6.15;3.38;;;;;;;;;;12848314;23;21153;-86
2023/09/21 21:09:36;;;;;;;6.65;3.50;;;;;;;;;;12848765;23;20408;-86
2023/09/21 21:14:38;;;;;;;7.43;4.00;;;;;;;;;;12847845;23;20431;-85
2023/09/21 21:19:40;;;;;;;6.05;3.95;;;;;;;;;;12847543;23;20374;-85
2023/09/21 21:24:45;;;;;;;8.80;4.20;;;;;;;;;;12848425;23;20382;-86
2023/09/21 21:29:47;;;;;;;9.82;4.88;;;;;;;;;;12843531;23;20967;-86
2023/09/21 21:34:49;;;;;;;7.15;3.95;;;;;;;;;;12842599;23;20390;-86
2023/09/21 21:39:53;;;;;;;8.68;4.60;;;;;;;;;;12846252;23;20454;-87
2023/09/21 21:44:56;;;;;;;7.78;4.80;;;;;;;;;;12846915;23;20826;-87
2023/09/21 21:49:58;;;;;;;8.07;5.07;;;;;;;;;;12848026;23;20456;-86
2023/09/21 21:55:03;;;;;;;8.40;5.40;;;;;;;;;;12853901;23;20386;-87
2023/09/21 22:00:14;;;;;;;7.50;4.63;;;;;;;;;;12853866;23;20362;-87
2023/09/21 22:05:16;;;;;;;7.20;4.32;;;;;;;;;;12875756;23;20412;-86
2023/09/21 22:10:20;;;;;;;9.50;4.33;;;;;;;;;;12854416;23;20456;-86
2023/09/21 22:15:23;;;;;;;7.97;4.38;;;;;;;;;;12853356;23;20381;-86
2023/09/21 22:20:25;;;;;;;9.57;4.18;;;;;;;;;;12855066;23;20370;-86
2023/09/21 22:25:32;;;;;;;6.23;4.10;;;;;;;;;;12854397;23;20746;-86
2023/09/21 22:30:34;;;;;;;6.72;4.03;;;;;;;;;;12855414;23;20362;-86
2023/09/21 22:35:40;;;;;;;9.05;3.85;;;;;;;;;;12854127;23;20707;-86
2023/09/21 22:40:46;;;;;;;6.13;4.10;;;;;;;;;;12852981;23;20366;-86
2023/09/21 22:45:48;;;;;;;11.30;4.70;;;;;;;;;;12874643;23;20358;-87
2023/09/21 22:50:56;;;;;;;8.18;4.55;;;;;;;;;;12855624;23;20365;-86
2023/09/21 22:56:01;;;;;;;7.85;4.53;;;;;;;;;;12856167;23;20389;-86
2023/09/21 23:01:03;;;;;;;9.27;5.70;;;;;;;;;;12857106;23;20373;-86
2023/09/21 23:06:09;;;;;;;7.70;4.90;;;;;;;;;;12857771;23;20362;-86
2023/09/21 23:11:14;;;;;;;9.45;5.22;;;;;;;;;;12860248;23;20397;-85
2023/09/21 23:16:17;;;;;;;7.82;4.78;;;;;;;;;;12856329;23;20394;-85
2023/09/21 23:21:20;;;;;;;6.70;5.03;;;;;;;;;;12857342;23;20370;-85
2023/09/21 23:26:27;;;;;;;9.15;5.28;;;;;;;;;;12879326;23;20893;-85
2023/09/21 23:31:31;;;;;;;8.23;5.13;;;;;;;;;;12857917;23;20365;-87
2023/09/21 23:36:35;;;;;;;10.50;5.95;;;;;;;;;;12857307;23;20921;-86
2023/09/21 23:41:39;;;;;;;10.30;5.68;;;;;;;;;;12850418;23;20382;-86
2023/09/21 23:46:42;;;;;;;9.32;5.22;;;;;;;;;;12856521;23;20907;-86
2023/09/21 23:51:44;;;;;;;10.80;5.30;;;;;;;;;;12857234;23;20555;-85
2023/09/21 23:56:48;;;;;;;7.88;5.00;;;;;;;;;;12856469;23;20440;-85
